KACY

Atlantic City International Airport

Atlantic City, New Jersey, USA
METAR KACY 191754Z 08008KT 10SM BKN027 BKN038 27/22 A2990 RMK AO2 SLP125 T02720217 10278 20211 51005
Observed Flight Rules
Sep-19 @ 17:54 UTC (52 minutes ago) Marginal Visual Flight Rules
Wind Visibility Clouds
80° at 8 knots 10 miles
  • Broken at 2,700' AGL
  • Broken at 3,800' AGL
Temperatures Readings
Current 27°C / 81°F
Dewpoint 22°C / 72°F
Humidity 74%
Altimeter 29.9" Hg
Pressure 1012.5 hPa
Elevation 23
METAR KACY 191754Z 08008KT 10SM BKN027 BKN038 27/22 A2990 RMK AO2 SLP125 T02720217 10278 20211 51005
Observed Flight Rules
Sep-19 @ 17:54 UTC
(52 minutes ago)
MVFR
Wind Visibility
80° at 8 knots 10 miles
Clouds
  • Broken at 2,700' AGL
  • Broken at 3,800' AGL
Temperature Dewpoint
27°C / 81°F 22°C / 72°F
Humidity Altimeter Pressure
74% 29.9" Hg 1012.5 hPa